sensor_id;sensor_type;location;lat;lon;timestamp;pressure;altitude;pressure_sealevel;temperature;humidity
6942;BME280;3510;43.200;27.920;2023-07-22T00:01:30;100957.91;;;31.66;58.27
6942;BME280;3510;43.200;27.920;2023-07-22T00:03:57;100975.28;;;32.08;56.69
6942;BME280;3510;43.200;27.920;2023-07-22T00:06:24;100977.00;;;32.20;56.81
6942;BME280;3510;43.200;27.920;2023-07-22T00:08:50;100983.09;;;32.10;56.73
6942;BME280;3510;43.200;27.920;2023-07-22T00:11:17;100972.69;;;31.88;57.64
6942;BME280;3510;43.200;27.920;2023-07-22T00:13:44;100965.69;;;32.15;56.81
6942;BME280;3510;43.200;27.920;2023-07-22T00:16:10;100965.72;;;32.07;57.16
6942;BME280;3510;43.200;27.920;2023-07-22T00:18:38;100972.63;;;32.34;56.28
6942;BME280;3510;43.200;27.920;2023-07-22T00:21:04;100970.94;;;31.96;57.68
6942;BME280;3510;43.200;27.920;2023-07-22T00:23:31;100959.66;;;32.08;57.12
6942;BME280;3510;43.200;27.920;2023-07-22T00:25:58;100960.50;;;32.24;56.70
6942;BME280;3510;43.200;27.920;2023-07-22T00:28:24;100948.38;;;32.03;57.36
6942;BME280;3510;43.200;27.920;2023-07-22T00:30:51;100937.09;;;31.96;57.57
6942;BME280;3510;43.200;27.920;2023-07-22T00:33:18;100928.44;;;31.82;57.72
6942;BME280;3510;43.200;27.920;2023-07-22T00:35:48;100933.63;;;32.00;56.89
6942;BME280;3510;43.200;27.920;2023-07-22T00:38:16;100932.78;;;31.89;57.16
6942;BME280;3510;43.200;27.920;2023-07-22T00:40:43;100932.78;;;31.94;57.34
6942;BME280;3510;43.200;27.920;2023-07-22T00:43:10;100927.59;;;31.86;57.90
6942;BME280;3510;43.200;27.920;2023-07-22T00:45:37;100917.16;;;31.42;59.28
6942;BME280;3510;43.200;27.920;2023-07-22T00:48:03;100918.03;;;31.61;58.82
6942;BME280;3510;43.200;27.920;2023-07-22T00:50:31;100917.16;;;31.94;57.34
6942;BME280;3510;43.200;27.920;2023-07-22T00:53:00;100904.94;;;32.07;57.19
6942;BME280;3510;43.200;27.920;2023-07-22T00:55:27;100908.44;;;32.09;57.16
6942;BME280;3510;43.200;27.920;2023-07-22T00:57:54;100902.38;;;32.05;57.30
6942;BME280;3510;43.200;27.920;2023-07-22T01:00:20;100907.56;;;31.96;57.73
6942;BME280;3510;43.200;27.920;2023-07-22T01:02:47;100909.34;;;31.89;58.10
6942;BME280;3510;43.200;27.920;2023-07-22T01:05:14;100904.13;;;31.88;58.23
6942;BME280;3510;43.200;27.920;2023-07-22T01:07:41;100899.78;;;31.73;58.78
6942;BME280;3510;43.200;27.920;2023-07-22T01:10:10;100898.03;;;31.89;58.26
6942;BME280;3510;43.200;27.920;2023-07-22T01:12:37;100900.56;;;32.15;57.91
6942;BME280;3510;43.200;27.920;2023-07-22T01:15:03;100905.72;;;32.33;56.73
6942;BME280;3510;43.200;27.920;2023-07-22T01:17:33;100900.66;;;31.79;58.69
6942;BME280;3510;43.200;27.920;2023-07-22T01:20:00;100898.91;;;31.98;58.35
6942;BME280;3510;43.200;27.920;2023-07-22T01:22:27;100905.78;;;32.18;57.56
6942;BME280;3510;43.200;27.920;2023-07-22T01:24:56;100897.97;;;32.18;57.65
6942;BME280;3510;43.200;27.920;2023-07-22T01:27:23;100879.69;;;32.35;57.45
6942;BME280;3510;43.200;27.920;2023-07-22T01:29:50;100884.88;;;32.38;56.89
6942;BME280;3510;43.200;27.920;2023-07-22T01:32:16;100892.84;;;31.98;58.19
6942;BME280;3510;43.200;27.920;2023-07-22T01:34:43;100885.75;;;32.32;57.86
6942;BME280;3510;43.200;27.920;2023-07-22T01:37:09;100879.66;;;32.41;57.60
6942;BME280;3510;43.200;27.920;2023-07-22T01:39:36;100878.75;;;32.52;57.09
6942;BME280;3510;43.200;27.920;2023-07-22T01:42:04;100878.69;;;32.65;56.76
6942;BME280;3510;43.200;27.920;2023-07-22T01:44:31;100889.00;;;32.86;56.61
6942;BME280;3510;43.200;27.920;2023-07-22T01:46:57;100873.50;;;32.56;57.14
6942;BME280;3510;43.200;27.920;2023-07-22T01:49:23;100872.72;;;32.46;57.08
6942;BME280;3510;43.200;27.920;2023-07-22T01:51:50;100855.34;;;32.42;57.17
6942;BME280;3510;43.200;27.920;2023-07-22T01:54:17;100865.69;;;32.56;56.38
6942;BME280;3510;43.200;27.920;2023-07-22T01:56:44;100858.03;;;32.19;57.24
6942;BME280;3510;43.200;27.920;2023-07-22T01:59:12;100858.97;;;31.98;58.18
6942;BME280;3510;43.200;27.920;2023-07-22T02:01:38;100857.22;;;31.81;58.60
6942;BME280;3510;43.200;27.920;2023-07-22T02:04:05;100853.84;;;31.50;59.92
6942;BME280;3510;43.200;27.920;2023-07-22T02:06:31;100854.63;;;31.85;58.32
6942;BME280;3510;43.200;27.920;2023-07-22T02:08:58;100852.94;;;31.73;58.96
6942;BME280;3510;43.200;27.920;2023-07-22T02:11:25;100860.69;;;31.85;58.69
6942;BME280;3510;43.200;27.920;2023-07-22T02:13:51;100859.91;;;31.57;59.44
6942;BME280;3510;43.200;27.920;2023-07-22T02:16:19;100857.31;;;31.60;59.38
6942;BME280;3510;43.200;27.920;2023-07-22T02:18:45;100862.50;;;31.86;58.41
6942;BME280;3510;43.200;27.920;2023-07-22T02:21:12;100871.97;;;31.99;57.86
6942;BME280;3510;43.200;27.920;2023-07-22T02:23:39;100884.16;;;31.88;58.09
6942;BME280;3510;43.200;27.920;2023-07-22T02:26:05;100882.38;;;32.05;57.91
6942;BME280;3510;43.200;27.920;2023-07-22T02:28:32;100884.97;;;32.13;56.90
6942;BME280;3510;43.200;27.920;2023-07-22T02:31:00;100882.41;;;32.02;57.68
6942;BME280;3510;43.200;27.920;2023-07-22T02:33:32;100885.88;;;31.80;58.35
6942;BME280;3510;43.200;27.920;2023-07-22T02:35:58;100874.59;;;31.81;58.22
6942;BME280;3510;43.200;27.920;2023-07-22T02:38:25;100876.41;;;31.56;58.95
6942;BME280;3510;43.200;27.920;2023-07-22T02:40:51;100875.53;;;31.43;59.39
6942;BME280;3510;43.200;27.920;2023-07-22T02:43:18;100867.72;;;31.39;59.61
6942;BME280;3510;43.200;27.920;2023-07-22T02:45:45;100861.63;;;31.55;59.33
6942;BME280;3510;43.200;27.920;2023-07-22T02:48:11;100854.72;;;31.37;59.18
6942;BME280;3510;43.200;27.920;2023-07-22T02:50:39;100872.91;;;31.57;59.33
6942;BME280;3510;43.200;27.920;2023-07-22T02:53:06;100878.03;;;32.06;57.64
6942;BME280;3510;43.200;27.920;2023-07-22T02:55:32;100880.72;;;31.86;58.40
6942;BME280;3510;43.200;27.920;2023-07-22T02:57:59;100880.69;;;31.78;58.46
6942;BME280;3510;43.200;27.920;2023-07-22T03:00:25;100879.00;;;31.47;59.15
6942;BME280;3510;43.200;27.920;2023-07-22T03:02:53;100873.75;;;31.28;59.73
6942;BME280;3510;43.200;27.920;2023-07-22T03:05:25;100877.25;;;31.47;59.61
6942;BME280;3510;43.200;27.920;2023-07-22T03:07:54;100885.78;;;30.73;61.67
6942;BME280;3510;43.200;27.920;2023-07-22T03:10:21;100891.13;;;31.26;59.70
6942;BME280;3510;43.200;27.920;2023-07-22T03:12:47;100884.13;;;30.78;61.06
6942;BME280;3510;43.200;27.920;2023-07-22T03:15:14;100879.81;;;31.10;60.46
6942;BME280;3510;43.200;27.920;2023-07-22T03:17:41;100896.31;;;31.69;58.82
6942;BME280;3510;43.200;27.920;2023-07-22T03:20:08;100898.03;;;31.29;60.23
6942;BME280;3510;43.200;27.920;2023-07-22T03:22:39;100911.94;;;31.65;58.64
6942;BME280;3510;43.200;27.920;2023-07-22T03:25:07;100922.31;;;31.19;59.94
6942;BME280;3510;43.200;27.920;2023-07-22T03:27:35;100934.41;;;30.91;61.01
6942;BME280;3510;43.200;27.920;2023-07-22T03:30:01;100950.03;;;31.01;60.23
6942;BME280;3510;43.200;27.920;2023-07-22T03:32:28;100958.66;;;30.94;60.17
6942;BME280;3510;43.200;27.920;2023-07-22T03:34:54;100949.16;;;31.02;60.19
6942;BME280;3510;43.200;27.920;2023-07-22T03:37:21;100943.06;;;30.96;60.28
6942;BME280;3510;43.200;27.920;2023-07-22T03:39:47;100947.53;;;31.38;59.57
6942;BME280;3510;43.200;27.920;2023-07-22T03:42:15;100938.81;;;32.10;56.83
6942;BME280;3510;43.200;27.920;2023-07-22T03:44:41;100931.63;;;32.77;55.38
6942;BME280;3510;43.200;27.920;2023-07-22T03:47:08;100920.00;;;33.29;54.06
6942;BME280;3510;43.200;27.920;2023-07-22T03:49:34;100919.59;;;33.78;53.17
6942;BME280;3510;43.200;27.920;2023-07-22T03:52:01;100921.69;;;34.32;51.27
6942;BME280;3510;43.200;27.920;2023-07-22T03:54:27;100926.41;;;33.93;51.64
6942;BME280;3510;43.200;27.920;2023-07-22T03:56:53;100928.41;;;33.71;52.34
6942;BME280;3510;43.200;27.920;2023-07-22T03:59:21;100934.25;;;34.01;51.81
6942;BME280;3510;43.200;27.920;2023-07-22T04:01:47;100931.91;;;33.67;52.38
6942;BME280;3510;43.200;27.920;2023-07-22T04:04:14;100919.00;;;33.53;53.14
6942;BME280;3510;43.200;27.920;2023-07-22T04:06:41;100926.19;;;33.19;53.76
6942;BME280;3510;43.200;27.920;2023-07-22T04:09:07;100929.94;;;33.90;51.51
6942;BME280;3510;43.200;27.920;2023-07-22T04:11:33;100918.47;;;34.07;51.32
6942;BME280;3510;43.200;27.920;2023-07-22T04:14:00;100871.63;;;32.82;54.12
6942;BME280;3510;43.200;27.920;2023-07-22T04:16:28;100918.28;;;33.28;53.46
6942;BME280;3510;43.200;27.920;2023-07-22T04:18:56;100906.53;;;32.55;55.44
6942;BME280;3510;43.200;27.920;2023-07-22T04:21:26;100911.91;;;33.63;53.33
6942;BME280;3510;43.200;27.920;2023-07-22T04:23:52;100912.97;;;34.30;50.56
6942;BME280;3510;43.200;27.920;2023-07-22T04:26:19;100912.13;;;34.29;50.76
6942;BME280;3510;43.200;27.920;2023-07-22T04:28:46;100910.81;;;34.65;49.92
6942;BME280;3510;43.200;27.920;2023-07-22T04:31:14;100915.13;;;34.71;50.05
6942;BME280;3510;43.200;27.920;2023-07-22T04:33:42;100907.06;;;34.14;51.25
6942;BME280;3510;43.200;27.920;2023-07-22T04:36:09;100904.25;;;34.32;50.54
6942;BME280;3510;43.200;27.920;2023-07-22T04:38:36;100899.41;;;32.94;54.17
6942;BME280;3510;43.200;27.920;2023-07-22T04:41:02;100898.91;;;33.60;52.83
6942;BME280;3510;43.200;27.920;2023-07-22T04:43:30;100892.94;;;34.32;50.62
6942;BME280;3510;43.200;27.920;2023-07-22T04:45:58;100890.16;;;35.07;48.47
6942;BME280;3510;43.200;27.920;2023-07-22T04:48:26;100881.69;;;34.88;48.04
6942;BME280;3510;43.200;27.920;2023-07-22T04:50:54;100920.34;;;35.30;47.28
6942;BME280;3510;43.200;27.920;2023-07-22T04:53:21;100911.09;;;35.07;48.07
6942;BME280;3510;43.200;27.920;2023-07-22T04:55:48;100912.22;;;34.89;48.17
6942;BME280;3510;43.200;27.920;2023-07-22T04:58:15;100927.31;;;35.83;46.32
6942;BME280;3510;43.200;27.920;2023-07-22T05:00:45;100930.06;;;36.22;45.37
6942;BME280;3510;43.200;27.920;2023-07-22T05:03:11;100935.97;;;36.33;45.93
6942;BME280;3510;43.200;27.920;2023-07-22T05:05:39;100937.41;;;36.50;45.31
6942;BME280;3510;43.200;27.920;2023-07-22T05:08:07;100902.34;;;35.62;46.87
6942;BME280;3510;43.200;27.920;2023-07-22T05:10:34;100941.69;;;35.61;47.31
6942;BME280;3510;43.200;27.920;2023-07-22T05:13:01;100933.50;;;33.82;48.26
6942;BME280;3510;43.200;27.920;2023-07-22T05:15:27;100928.78;;;34.88;46.08
6942;BME280;3510;43.200;27.920;2023-07-22T05:17:54;100930.41;;;34.99;48.67
6942;BME280;3510;43.200;27.920;2023-07-22T05:20:21;100936.47;;;35.02;48.92
6942;BME280;3510;43.200;27.920;2023-07-22T05:22:48;100939.38;;;35.39;48.25
6942;BME280;3510;43.200;27.920;2023-07-22T05:25:16;100912.31;;;35.40;45.97
6942;BME280;3510;43.200;27.920;2023-07-22T05:27:43;100937.53;;;35.96;45.04
6942;BME280;3510;43.200;27.920;2023-07-22T05:30:10;100936.69;;;34.87;45.21
6942;BME280;3510;43.200;27.920;2023-07-22T05:32:37;100902.69;;;35.41;44.00
6942;BME280;3510;43.200;27.920;2023-07-22T05:35:04;100926.94;;;36.05;43.58
6942;BME280;3510;43.200;27.920;2023-07-22T05:37:33;100925.19;;;36.04;43.73
6942;BME280;3510;43.200;27.920;2023-07-22T05:39:59;100901.91;;;36.32;43.70
6942;BME280;3510;43.200;27.920;2023-07-22T05:42:28;100910.69;;;35.84;45.45
6942;BME280;3510;43.200;27.920;2023-07-22T05:44:57;100912.44;;;35.34;46.20
6942;BME280;3510;43.200;27.920;2023-07-22T05:47:23;100917.63;;;35.85;45.10
6942;BME280;3510;43.200;27.920;2023-07-22T05:49:50;100919.25;;;35.94;45.31
6942;BME280;3510;43.200;27.920;2023-07-22T05:52:17;100916.94;;;35.25;46.78
6942;BME280;3510;43.200;27.920;2023-07-22T05:54:44;100918.78;;;35.72;46.63
6942;BME280;3510;43.200;27.920;2023-07-22T05:57:11;100903.16;;;35.13;46.91
6942;BME280;3510;43.200;27.920;2023-07-22T05:59:39;100885.53;;;35.25;46.70
6942;BME280;3510;43.200;27.920;2023-07-22T06:02:06;100897.81;;;34.61;48.20
6942;BME280;3510;43.200;27.920;2023-07-22T06:04:32;100911.34;;;34.90;48.07
6942;BME280;3510;43.200;27.920;2023-07-22T06:06:59;100905.94;;;35.03;48.07
6942;BME280;3510;43.200;27.920;2023-07-22T06:09:26;100889.88;;;33.91;50.01
6942;BME280;3510;43.200;27.920;2023-07-22T06:11:54;100890.94;;;34.54;49.07
6942;BME280;3510;43.200;27.920;2023-07-22T06:14:20;100884.66;;;34.65;49.13
6942;BME280;3510;43.200;27.920;2023-07-22T06:16:49;100858.72;;;34.50;49.14
6942;BME280;3510;43.200;27.920;2023-07-22T06:19:15;100867.44;;;34.51;48.97
6942;BME280;3510;43.200;27.920;2023-07-22T06:21:42;100816.25;;;33.56;51.83
6942;BME280;3510;43.200;27.920;2023-07-22T06:24:08;100848.88;;;34.69;49.59
6942;BME280;3510;43.200;27.920;2023-07-22T06:26:36;100850.34;;;34.85;48.95
6942;BME280;3510;43.200;27.920;2023-07-22T06:29:02;100853.72;;;34.94;48.33
6942;BME280;3510;43.200;27.920;2023-07-22T06:31:29;100847.34;;;35.11;48.65
6942;BME280;3510;43.200;27.920;2023-07-22T06:33:58;100762.75;;;34.57;48.12
6942;BME280;3510;43.200;27.920;2023-07-22T06:36:25;100853.47;;;35.10;48.47
6942;BME280;3510;43.200;27.920;2023-07-22T06:38:51;100849.25;;;34.41;49.63
6942;BME280;3510;43.200;27.920;2023-07-22T06:41:20;100856.75;;;34.66;48.94
6942;BME280;3510;43.200;27.920;2023-07-22T06:43:49;100848.66;;;34.19;49.66
6942;BME280;3510;43.200;27.920;2023-07-22T06:46:16;100829.94;;;34.52;49.38
6942;BME280;3510;43.200;27.920;2023-07-22T06:48:48;100856.78;;;35.23;48.12
6942;BME280;3510;43.200;27.920;2023-07-22T06:51:16;100857.16;;;34.97;48.73
6942;BME280;3510;43.200;27.920;2023-07-22T06:53:43;100855.41;;;35.52;47.29
6942;BME280;3510;43.200;27.920;2023-07-22T06:56:10;100843.19;;;35.99;46.13
6942;BME280;3510;43.200;27.920;2023-07-22T06:58:37;100815.94;;;36.06;45.68
6942;BME280;3510;43.200;27.920;2023-07-22T07:01:03;100877.94;;;36.07;46.37
6942;BME280;3510;43.200;27.920;2023-07-22T07:03:30;100877.63;;;36.22;45.48
6942;BME280;3510;43.200;27.920;2023-07-22T07:05:57;100871.69;;;36.56;45.34
6942;BME280;3510;43.200;27.920;2023-07-22T07:08:25;100848.13;;;36.92;44.67
6942;BME280;3510;43.200;27.920;2023-07-22T07:10:52;100867.50;;;36.05;46.02
6942;BME280;3510;43.200;27.920;2023-07-22T07:13:18;100814.94;;;35.20;47.29
6942;BME280;3510;43.200;27.920;2023-07-22T07:15:47;100870.97;;;35.59;46.87
6942;BME280;3510;43.200;27.920;2023-07-22T07:18:14;100855.63;;;34.84;49.03
6942;BME280;3510;43.200;27.920;2023-07-22T07:20:41;100873.16;;;35.33;48.60
6942;BME280;3510;43.200;27.920;2023-07-22T07:23:08;100855.91;;;35.71;47.92
6942;BME280;3510;43.200;27.920;2023-07-22T07:25:36;100860.59;;;35.02;48.87
6942;BME280;3510;43.200;27.920;2023-07-22T07:28:03;100848.53;;;34.90;48.98
6942;BME280;3510;43.200;27.920;2023-07-22T07:30:31;100806.78;;;34.84;48.55
6942;BME280;3510;43.200;27.920;2023-07-22T07:32:57;100855.50;;;34.91;48.91
6942;BME280;3510;43.200;27.920;2023-07-22T07:35:24;100859.91;;;34.88;49.42
6942;BME280;3510;43.200;27.920;2023-07-22T07:37:51;100870.84;;;35.16;48.33
6942;BME280;3510;43.200;27.920;2023-07-22T07:40:17;100867.22;;;34.67;49.44
6942;BME280;3510;43.200;27.920;2023-07-22T07:42:45;100862.44;;;34.94;49.14
6942;BME280;3510;43.200;27.920;2023-07-22T07:45:12;100871.19;;;36.37;46.66
6942;BME280;3510;43.200;27.920;2023-07-22T07:47:39;100871.13;;;35.97;47.68
6942;BME280;3510;43.200;27.920;2023-07-22T07:50:06;100864.31;;;35.40;48.49
6942;BME280;3510;43.200;27.920;2023-07-22T07:52:33;100857.81;;;35.62;48.16
6942;BME280;3510;43.200;27.920;2023-07-22T07:55:00;100820.44;;;35.05;49.71
6942;BME280;3510;43.200;27.920;2023-07-22T07:57:27;100834.84;;;35.30;49.88
6942;BME280;3510;43.200;27.920;2023-07-22T07:59:55;100836.41;;;35.85;48.69
6942;BME280;3510;43.200;27.920;2023-07-22T08:02:22;100820.16;;;35.20;49.09
6942;BME280;3510;43.200;27.920;2023-07-22T08:04:48;100831.22;;;35.36;48.59
6942;BME280;3510;43.200;27.920;2023-07-22T08:07:16;100844.56;;;35.72;48.57
6942;BME280;3510;43.200;27.920;2023-07-22T08:09:43;100789.00;;;35.98;48.03
6942;BME280;3510;43.200;27.920;2023-07-22T08:12:13;100832.38;;;36.14;46.64
6942;BME280;3510;43.200;27.920;2023-07-22T08:14:40;100845.19;;;35.84;47.06
6942;BME280;3510;43.200;27.920;2023-07-22T08:17:08;100829.81;;;36.11;46.95
6942;BME280;3510;43.200;27.920;2023-07-22T08:19:35;100826.63;;;35.95;47.54
6942;BME280;3510;43.200;27.920;2023-07-22T08:22:02;100806.97;;;36.94;46.17
6942;BME280;3510;43.200;27.920;2023-07-22T08:24:29;100812.66;;;35.93;46.88
6942;BME280;3510;43.200;27.920;2023-07-22T08:26:56;100810.72;;;36.06;46.49
6942;BME280;3510;43.200;27.920;2023-07-22T08:29:22;100813.63;;;36.32;46.66
6942;BME280;3510;43.200;27.920;2023-07-22T08:31:49;100808.91;;;35.65;46.99
6942;BME280;3510;43.200;27.920;2023-07-22T08:34:17;100814.41;;;36.36;46.62
6942;BME280;3510;43.200;27.920;2023-07-22T08:36:46;100833.91;;;37.02;46.00
6942;BME280;3510;43.200;27.920;2023-07-22T08:39:14;100822.06;;;36.06;47.27
6942;BME280;3510;43.200;27.920;2023-07-22T08:41:47;100831.16;;;36.69;46.51
6942;BME280;3510;43.200;27.920;2023-07-22T08:44:18;100828.53;;;36.30;47.49
6942;BME280;3510;43.200;27.920;2023-07-22T08:46:46;100820.84;;;35.79;48.81
6942;BME280;3510;43.200;27.920;2023-07-22T08:49:13;100809.00;;;35.60;49.42
6942;BME280;3510;43.200;27.920;2023-07-22T08:51:44;100812.59;;;35.99;48.59
6942;BME280;3510;43.200;27.920;2023-07-22T08:54:11;100841.59;;;35.88;48.26
6942;BME280;3510;43.200;27.920;2023-07-22T08:56:39;100826.03;;;35.34;49.12
6942;BME280;3510;43.200;27.920;2023-07-22T08:59:06;100837.63;;;35.69;48.13
6942;BME280;3510;43.200;27.920;2023-07-22T09:01:34;100836.78;;;35.18;49.43
6942;BME280;3510;43.200;27.920;2023-07-22T09:04:01;100763.84;;;35.46;48.71
6942;BME280;3510;43.200;27.920;2023-07-22T09:06:28;100839.34;;;36.93;46.72
6942;BME280;3510;43.200;27.920;2023-07-22T09:08:56;100833.47;;;36.83;46.87
6942;BME280;3510;43.200;27.920;2023-07-22T09:11:25;100802.59;;;36.57;46.91
6942;BME280;3510;43.200;27.920;2023-07-22T09:13:53;100790.06;;;36.31;47.72
6942;BME280;3510;43.200;27.920;2023-07-22T09:16:20;100814.97;;;36.10;48.09
6942;BME280;3510;43.200;27.920;2023-07-22T09:18:47;100824.63;;;35.63;49.38
6942;BME280;3510;43.200;27.920;2023-07-22T09:21:14;100818.44;;;35.67;49.39
6942;BME280;3510;43.200;27.920;2023-07-22T09:23:41;100814.03;;;36.14;48.62
6942;BME280;3510;43.200;27.920;2023-07-22T09:26:10;100816.13;;;35.49;49.37
6942;BME280;3510;43.200;27.920;2023-07-22T09:28:53;100813.44;;;36.42;47.67
6942;BME280;3510;43.200;27.920;2023-07-22T09:31:21;100784.94;;;35.36;48.47
6942;BME280;3510;43.200;27.920;2023-07-22T09:33:49;100805.81;;;35.87;47.83
6942;BME280;3510;43.200;27.920;2023-07-22T09:36:19;100808.09;;;36.04;47.48
6942;BME280;3510;43.200;27.920;2023-07-22T09:38:59;100798.63;;;35.97;47.56
6942;BME280;3510;43.200;27.920;2023-07-22T09:41:29;100737.69;;;34.96;49.12
6942;BME280;3510;43.200;27.920;2023-07-22T09:43:56;100792.03;;;36.21;47.68
6942;BME280;3510;43.200;27.920;2023-07-22T09:46:31;100785.31;;;36.08;47.52
6942;BME280;3510;43.200;27.920;2023-07-22T09:49:03;100785.81;;;35.83;48.06
6942;BME280;3510;43.200;27.920;2023-07-22T09:51:34;100792.97;;;35.75;48.15
6942;BME280;3510;43.200;27.920;2023-07-22T09:54:02;100790.84;;;35.49;48.83
6942;BME280;3510;43.200;27.920;2023-07-22T09:56:31;100790.25;;;36.23;48.25
6942;BME280;3510;43.200;27.920;2023-07-22T09:58:59;100785.38;;;36.44;46.93
6942;BME280;3510;43.200;27.920;2023-07-22T10:01:26;100782.34;;;35.81;47.91
6942;BME280;3510;43.200;27.920;2023-07-22T10:03:54;100776.94;;;35.91;47.76
6942;BME280;3510;43.200;27.920;2023-07-22T10:06:23;100773.72;;;36.20;46.61
6942;BME280;3510;43.200;27.920;2023-07-22T10:08:51;100773.31;;;36.37;46.62
6942;BME280;3510;43.200;27.920;2023-07-22T10:11:18;100764.28;;;36.11;46.43
6942;BME280;3510;43.200;27.920;2023-07-22T10:13:46;100752.72;;;35.79;47.68
6942;BME280;3510;43.200;27.920;2023-07-22T10:16:15;100764.84;;;35.83;48.04
6942;BME280;3510;43.200;27.920;2023-07-22T10:18:42;100735.75;;;35.96;47.66
6942;BME280;3510;43.200;27.920;2023-07-22T10:21:10;100747.88;;;35.61;47.80
6942;BME280;3510;43.200;27.920;2023-07-22T10:23:38;100758.06;;;36.17;47.24
6942;BME280;3510;43.200;27.920;2023-07-22T10:26:05;100747.19;;;35.92;47.78
6942;BME280;3510;43.200;27.920;2023-07-22T10:28:32;100755.94;;;36.32;46.46
6942;BME280;3510;43.200;27.920;2023-07-22T10:31:00;100770.88;;;36.68;46.97
6942;BME280;3510;43.200;27.920;2023-07-22T10:33:28;100761.91;;;37.11;46.25
6942;BME280;3510;43.200;27.920;2023-07-22T10:36:04;100758.81;;;37.60;44.87
6942;BME280;3510;43.200;27.920;2023-07-22T10:38:31;100751.34;;;37.76;44.26
6942;BME280;3510;43.200;27.920;2023-07-22T10:40:58;100738.72;;;37.26;45.30
6942;BME280;3510;43.200;27.920;2023-07-22T10:43:27;100746.31;;;37.37;45.22
6942;BME280;3510;43.200;27.920;2023-07-22T10:45:55;100755.81;;;37.43;44.69
6942;BME280;3510;43.200;27.920;2023-07-22T10:48:26;100754.88;;;36.77;46.11
6942;BME280;3510;43.200;27.920;2023-07-22T10:50:58;100758.84;;;36.19;46.65
6942;BME280;3510;43.200;27.920;2023-07-22T10:53:29;100755.06;;;37.05;46.38
6942;BME280;3510;43.200;27.920;2023-07-22T10:56:05;100749.44;;;36.49;46.58
6942;BME280;3510;43.200;27.920;2023-07-22T10:58:33;100757.47;;;36.41;46.85
6942;BME280;3510;43.200;27.920;2023-07-22T11:01:23;100737.88;;;36.57;46.50
6942;BME280;3510;43.200;27.920;2023-07-22T11:04:05;100757.28;;;36.86;45.07
6942;BME280;3510;43.200;27.920;2023-07-22T11:06:32;100755.22;;;37.64;43.39
6942;BME280;3510;43.200;27.920;2023-07-22T11:08:59;100767.59;;;37.59;43.07
6942;BME280;3510;43.200;27.920;2023-07-22T11:11:35;100762.38;;;38.73;41.79
6942;BME280;3510;43.200;27.920;2023-07-22T11:14:13;100765.94;;;38.99;41.37
6942;BME280;3510;43.200;27.920;2023-07-22T11:16:42;100759.09;;;37.51;43.76
6942;BME280;3510;43.200;27.920;2023-07-22T11:19:12;100757.38;;;38.39;42.06
6942;BME280;3510;43.200;27.920;2023-07-22T11:21:39;100757.06;;;38.74;41.72
6942;BME280;3510;43.200;27.920;2023-07-22T11:24:07;100756.66;;;38.04;42.90
6942;BME280;3510;43.200;27.920;2023-07-22T11:26:34;100753.75;;;37.54;43.83
6942;BME280;3510;43.200;27.920;2023-07-22T11:29:01;100733.59;;;37.22;44.15
6942;BME280;3510;43.200;27.920;2023-07-22T11:31:31;100712.47;;;37.26;43.60
6942;BME280;3510;43.200;27.920;2023-07-22T11:33:58;100747.44;;;37.60;42.96
6942;BME280;3510;43.200;27.920;2023-07-22T11:36:27;100748.41;;;38.16;42.40
6942;BME280;3510;43.200;27.920;2023-07-22T11:38:53;100744.00;;;37.87;41.93
6942;BME280;3510;43.200;27.920;2023-07-22T11:41:20;100736.78;;;37.33;43.29
6942;BME280;3510;43.200;27.920;2023-07-22T11:43:48;100713.06;;;37.97;40.94
6942;BME280;3510;43.200;27.920;2023-07-22T11:46:15;100730.34;;;38.06;41.20
6942;BME280;3510;43.200;27.920;2023-07-22T11:48:49;100733.84;;;39.61;38.71
6942;BME280;3510;43.200;27.920;2023-07-22T11:51:18;100748.88;;;40.28;37.80
6942;BME280;3510;43.200;27.920;2023-07-22T11:53:48;100747.28;;;42.04;34.77
6942;BME280;3510;43.200;27.920;2023-07-22T11:56:20;100740.63;;;40.78;36.38
6942;BME280;3510;43.200;27.920;2023-07-22T11:58:49;100739.69;;;41.40;35.63
6942;BME280;3510;43.200;27.920;2023-07-22T12:01:16;100739.41;;;40.44;36.55
6942;BME280;3510;43.200;27.920;2023-07-22T12:03:43;100711.41;;;40.40;36.39
6942;BME280;3510;43.200;27.920;2023-07-22T12:06:10;100732.31;;;41.28;36.08
6942;BME280;3510;43.200;27.920;2023-07-22T12:08:43;100729.34;;;42.11;33.52
6942;BME280;3510;43.200;27.920;2023-07-22T12:11:21;100732.94;;;41.53;34.63
6942;BME280;3510;43.200;27.920;2023-07-22T12:13:50;100738.69;;;42.37;33.65
6942;BME280;3510;43.200;27.920;2023-07-22T12:16:30;100746.09;;;43.17;31.90
6942;BME280;3510;43.200;27.920;2023-07-22T12:18:57;100728.00;;;41.46;34.06
6942;BME280;3510;43.200;27.920;2023-07-22T12:21:24;100738.94;;;41.57;34.51
6942;BME280;3510;43.200;27.920;2023-07-22T12:23:52;100733.81;;;43.32;31.32
6942;BME280;3510;43.200;27.920;2023-07-22T12:26:21;100741.94;;;42.06;33.44
6942;BME280;3510;43.200;27.920;2023-07-22T12:28:48;100739.06;;;43.49;32.21
6942;BME280;3510;43.200;27.920;2023-07-22T12:31:15;100747.66;;;42.87;33.83
6942;BME280;3510;43.200;27.920;2023-07-22T12:33:41;100717.44;;;42.73;33.74
6942;BME280;3510;43.200;27.920;2023-07-22T12:36:08;100725.56;;;41.60;35.58
6942;BME280;3510;43.200;27.920;2023-07-22T12:38:35;100709.91;;;41.74;35.24
6942;BME280;3510;43.200;27.920;2023-07-22T12:41:03;100728.63;;;41.11;37.37
6942;BME280;3510;43.200;27.920;2023-07-22T12:43:31;100689.78;;;41.53;35.50
6942;BME280;3510;43.200;27.920;2023-07-22T12:45:58;100702.34;;;41.08;36.38
6942;BME280;3510;43.200;27.920;2023-07-22T12:48:25;100724.28;;;40.70;36.85
6942;BME280;3510;43.200;27.920;2023-07-22T12:50:51;100719.84;;;40.70;36.29
6942;BME280;3510;43.200;27.920;2023-07-22T12:53:20;100714.22;;;41.58;35.61
6942;BME280;3510;43.200;27.920;2023-07-22T12:55:46;100720.06;;;41.46;35.04
6942;BME280;3510;43.200;27.920;2023-07-22T12:58:13;100711.28;;;41.45;34.78
6942;BME280;3510;43.200;27.920;2023-07-22T13:00:41;100707.72;;;40.24;37.12
6942;BME280;3510;43.200;27.920;2023-07-22T13:03:08;100708.72;;;38.77;39.46